Time;durP1;ratioP1;P1;durP2;ratioP2;P2;SDS_P1;SDS_P2;PMS_P1;PMS_P2;Temp;Humidity;BMP_temperature;BMP_pressure;BME280_temperature;BME280_humidity;BME280_pressure;Samples;Min_cycle;Max_cycle;Signal;HPM_P1;HPM_P2
2023/01/22 00:01:37;;;;;;;29.30;16.00;;;;;;;1.35;89.77;100648.98;209074;1292;139973;-62
2023/01/22 00:06:42;;;;;;;24.40;14.30;;;;;;;1.37;89.85;100652.11;207310;1298;1357652;-64
2023/01/22 00:11:49;;;;;;;24.10;14.70;;;;;;;1.38;89.69;100651.52;208552;1299;140365;-63
2023/01/22 00:16:53;;;;;;;24.00;14.70;;;;;;;1.40;89.78;100662.70;208255;1293;141271;-67
2023/01/22 00:21:58;;;;;;;29.20;15.00;;;;;;;1.40;90.21;100670.39;208471;1292;140708;-62
2023/01/22 00:27:03;;;;;;;30.30;13.90;;;;;;;1.38;89.99;100677.27;207484;1289;139673;-67
2023/01/22 00:32:06;;;;;;;28.30;15.60;;;;;;;1.41;89.96;100682.21;207526;1289;141648;-64
2023/01/22 00:37:09;;;;;;;26.20;15.50;;;;;;;1.43;90.01;100678.52;208034;1292;140189;-62
2023/01/22 00:42:15;;;;;;;28.00;14.60;;;;;;;1.41;90.06;100677.98;207388;1283;140006;-64
2023/01/22 00:47:20;;;;;;;26.70;13.70;;;;;;;1.37;90.06;100682.55;207826;1285;141243;-68
2023/01/22 00:52:25;;;;;;;24.30;13.40;;;;;;;1.38;89.94;100689.16;208015;1292;141046;-62
2023/01/22 00:57:28;;;;;;;31.10;18.20;;;;;;;1.40;90.48;100693.88;207404;1292;143457;-62
2023/01/22 01:03:25;;;;;;;28.60;13.90;;;;;;;1.36;89.97;100695.31;207686;1293;139722;-65
2023/01/22 01:07:59;;;;;;;35.30;15.40;;;;;;;1.35;90.27;100689.21;207892;1294;246314;-66
2023/01/22 01:13:03;;;;;;;28.80;14.50;;;;;;;1.34;89.90;100689.81;207097;1286;140236;-66
2023/01/22 01:18:13;;;;;;;24.70;12.90;;;;;;;1.32;89.74;100694.13;207195;1292;140936;-68
2023/01/22 01:23:16;;;;;;;25.40;15.40;;;;;;;1.24;90.18;100695.92;207765;1298;140234;-68
2023/01/22 01:28:19;;;;;;;30.20;13.30;;;;;;;1.24;89.99;100693.27;208067;1299;140653;-67
2023/01/22 01:33:22;;;;;;;29.80;14.20;;;;;;;1.27;89.79;100699.80;208690;1299;164706;-67
2023/01/22 01:38:26;;;;;;;24.60;12.80;;;;;;;1.31;90.22;100704.73;208903;1300;139946;-66
2023/01/22 01:43:29;;;;;;;21.40;11.70;;;;;;;1.37;90.48;100712.17;209262;1299;139588;-66
2023/01/22 01:48:42;;;;;;;23.50;13.00;;;;;;;1.41;90.24;100708.66;209524;1303;140554;-65
2023/01/22 01:53:47;;;;;;;24.30;14.10;;;;;;;1.43;90.32;100708.06;209403;1300;140404;-64
2023/01/22 01:58:55;;;;;;;20.80;12.10;;;;;;;1.42;90.00;100708.31;208101;1300;140443;-65
2023/01/22 02:03:59;;;;;;;22.20;14.30;;;;;;;1.40;90.17;100701.89;208569;1300;139707;-65
2023/01/22 02:09:03;;;;;;;24.20;11.70;;;;;;;1.36;89.70;100698.63;208603;1302;140698;-65
2023/01/22 02:14:17;;;;;;;19.10;11.90;;;;;;;1.30;89.75;100706.59;208936;1301;141765;-65
2023/01/22 02:19:24;;;;;;;24.70;13.00;;;;;;;1.30;90.35;100710.00;208212;1291;139765;-63
2023/01/22 02:24:30;;;;;;;23.50;11.90;;;;;;;1.33;90.34;100707.27;207582;1304;139676;-63
2023/01/22 02:29:33;;;;;;;25.10;13.40;;;;;;;1.35;90.37;100712.18;207788;1294;140073;-65
2023/01/22 02:34:36;;;;;;;24.00;13.90;;;;;;;1.34;90.05;100722.09;207059;1292;140488;-63
2023/01/22 02:39:39;;;;;;;23.70;13.50;;;;;;;1.30;90.32;100725.99;207001;1301;140579;-63
2023/01/22 02:44:42;;;;;;;26.70;14.70;;;;;;;1.28;90.29;100729.35;207325;1302;144570;-63
2023/01/22 02:49:46;;;;;;;27.70;13.50;;;;;;;1.27;90.42;100731.32;208678;1297;139701;-63
2023/01/22 02:54:49;;;;;;;25.30;13.50;;;;;;;1.24;90.44;100729.71;208542;1305;139431;-64
2023/01/22 02:59:52;;;;;;;22.40;12.30;;;;;;;1.22;90.51;100725.27;207468;1299;140066;-65
2023/01/22 03:05:02;;;;;;;30.40;13.00;;;;;;;1.21;90.66;100725.46;207705;1294;140820;-65
2023/01/22 03:10:05;;;;;;;35.10;14.60;;;;;;;1.17;90.66;100725.89;207973;1292;140406;-65
2023/01/22 03:25:55;;;;;;;28.10;16.20;;;;;;;1.12;90.97;100744.75;208397;1302;222729;-65
2023/01/22 03:30:58;;;;;;;24.70;14.00;;;;;;;1.14;90.72;100741.12;208720;1298;140640;-65
2023/01/22 03:36:08;;;;;;;25.80;15.40;;;;;;;1.16;90.49;100744.59;209089;1305;139371;-65
2023/01/22 03:41:14;;;;;;;30.20;14.80;;;;;;;1.14;90.88;100744.70;209707;1302;139603;-66
2023/01/22 03:46:19;;;;;;;21.70;12.80;;;;;;;1.19;90.91;100747.91;209608;1296;143394;-68
2023/01/22 03:51:24;;;;;;;23.40;12.50;;;;;;;1.23;90.73;100752.27;209473;1301;140536;-67
2023/01/22 03:56:27;;;;;;;23.00;13.70;;;;;;;1.17;90.32;100758.83;208290;1299;139942;-68
2023/01/22 04:01:31;;;;;;;26.20;11.50;;;;;;;1.16;90.70;100765.34;207254;1291;140697;-67
2023/01/22 04:06:34;;;;;;;25.00;13.30;;;;;;;1.19;90.83;100771.74;207760;1299;139943;-66
2023/01/22 04:11:37;;;;;;;21.00;11.20;;;;;;;1.18;90.89;100781.50;207782;1290;139807;-68
2023/01/22 04:16:40;;;;;;;26.20;12.60;;;;;;;1.19;90.89;100793.27;207086;1291;140754;-68
2023/01/22 04:21:43;;;;;;;24.60;13.30;;;;;;;1.21;91.13;100794.61;207664;1290;140204;-69
2023/01/22 04:26:46;;;;;;;25.40;11.20;;;;;;;1.21;90.94;100799.02;208146;1306;139778;-67
2023/01/22 04:31:49;;;;;;;31.30;13.30;;;;;;;1.19;90.50;100801.84;207598;1305;139606;-67
2023/01/22 04:36:53;;;;;;;27.40;14.30;;;;;;;1.16;91.13;100801.28;207431;1302;140038;-67
2023/01/22 04:41:55;;;;;;;20.60;12.80;;;;;;;1.15;91.10;100807.30;208257;1299;140762;-64
2023/01/22 04:46:58;;;;;;;19.80;11.30;;;;;;;1.16;91.10;100806.17;208018;1293;139937;-66
2023/01/22 04:52:01;;;;;;;23.90;12.20;;;;;;;1.16;91.12;100810.23;208791;1298;140376;-65
2023/01/22 04:57:04;;;;;;;21.30;11.20;;;;;;;1.16;90.98;100814.24;207723;1296;140056;-64
2023/01/22 05:02:07;;;;;;;19.80;10.10;;;;;;;1.17;91.02;100821.88;207866;1300;141712;-64
2023/01/22 05:07:10;;;;;;;20.90;14.00;;;;;;;1.15;91.03;100823.92;209075;1305;140327;-64
2023/01/22 05:12:13;;;;;;;18.60;10.50;;;;;;;1.10;90.93;100819.39;207385;1297;139616;-63
2023/01/22 05:17:16;;;;;;;16.80;10.40;;;;;;;1.06;90.83;100820.15;208035;1302;139827;-65
2023/01/22 05:22:19;;;;;;;15.70;11.70;;;;;;;1.06;91.04;100821.98;208285;1299;140001;-63
2023/01/22 05:27:22;;;;;;;14.00;8.20;;;;;;;1.07;91.15;100826.31;208872;1299;140406;-65
2023/01/22 05:32:25;;;;;;;13.80;8.20;;;;;;;1.06;90.80;100829.86;209591;1305;140360;-65
2023/01/22 05:37:30;;;;;;;15.30;9.50;;;;;;;1.08;90.77;100837.42;209075;1286;140337;-64
2023/01/22 05:42:33;;;;;;;14.40;8.20;;;;;;;1.07;90.96;100845.55;209045;1299;139724;-64
2023/01/22 05:47:37;;;;;;;15.30;9.10;;;;;;;1.10;90.84;100845.45;208522;1305;142139;-64
2023/01/22 05:52:40;;;;;;;14.30;8.60;;;;;;;1.09;90.65;100845.73;208592;1295;141323;-65
2023/01/22 05:57:45;;;;;;;17.10;8.10;;;;;;;1.06;90.51;100845.83;208413;1301;139875;-63
2023/01/22 06:02:48;;;;;;;13.20;8.60;;;;;;;1.00;90.82;100850.02;209055;1299;139458;-64
2023/01/22 06:07:53;;;;;;;13.40;7.50;;;;;;;0.98;90.82;100856.31;207811;1305;139583;-65
2023/01/22 06:12:56;;;;;;;17.90;9.90;;;;;;;0.99;90.96;100864.10;208046;1286;139615;-64
2023/01/22 06:18:00;;;;;;;13.20;8.00;;;;;;;1.00;90.73;100861.29;208826;1300;140137;-65
2023/01/22 06:23:04;;;;;;;12.10;7.20;;;;;;;0.97;90.85;100862.42;207173;1289;139481;-63
2023/01/22 06:28:07;;;;;;;13.80;7.60;;;;;;;0.98;91.00;100869.33;207811;1299;140191;-63
2023/01/22 06:33:09;;;;;;;12.70;7.30;;;;;;;0.96;90.67;100871.95;207075;1292;140319;-63
2023/01/22 06:38:12;;;;;;;15.70;7.70;;;;;;;0.90;90.79;100879.67;208626;1292;141419;-64
2023/01/22 06:43:16;;;;;;;14.20;9.40;;;;;;;0.92;90.95;100887.08;207932;1299;139952;-63
2023/01/22 06:48:19;;;;;;;14.90;7.70;;;;;;;0.94;91.16;100896.48;208691;1294;139801;-66
2023/01/22 06:53:26;;;;;;;16.90;10.40;;;;;;;0.97;90.92;100896.00;208025;1293;139722;-66
2023/01/22 06:58:29;;;;;;;17.40;10.90;;;;;;;1.01;91.15;100904.36;208047;1295;140982;-64
2023/01/22 07:03:32;;;;;;;19.00;9.00;;;;;;;1.01;91.21;100912.06;208783;1291;138980;-64
2023/01/22 07:08:35;;;;;;;12.40;7.80;;;;;;;1.00;90.63;100915.11;209121;1298;141333;-66
2023/01/22 07:13:38;;;;;;;14.50;9.80;;;;;;;1.01;90.70;100915.77;209054;1299;140562;-65
2023/01/22 07:18:41;;;;;;;18.60;10.00;;;;;;;1.01;91.03;100926.64;208880;1299;140616;-65
2023/01/22 07:23:45;;;;;;;18.50;10.80;;;;;;;1.06;91.06;100934.97;209769;1300;140661;-65
2023/01/22 07:28:48;;;;;;;15.20;9.60;;;;;;;1.08;90.75;100944.36;209569;1298;231563;-64
2023/01/22 07:33:50;;;;;;;18.00;13.80;;;;;;;1.11;90.72;100949.16;208754;1299;140931;-66
2023/01/22 07:38:53;;;;;;;15.20;9.90;;;;;;;1.16;90.62;100952.36;207905;1299;161137;-67
2023/01/22 07:43:56;;;;;;;12.40;7.50;;;;;;;1.16;90.75;100958.85;208305;1292;140846;-68
2023/01/22 07:48:58;;;;;;;19.00;10.30;;;;;;;1.17;90.54;100960.54;209752;1297;140785;-67
2023/01/22 07:54:00;;;;;;;28.60;14.30;;;;;;;1.19;90.71;100967.70;207827;1283;140441;-67
2023/01/22 07:59:03;;;;;;;19.60;11.30;;;;;;;1.22;90.81;100970.02;208095;1289;139918;-67
2023/01/22 08:04:11;;;;;;;18.20;11.10;;;;;;;1.26;90.82;100970.98;208157;1286;140263;-67
2023/01/22 08:09:14;;;;;;;17.40;10.10;;;;;;;1.30;90.74;100974.88;208721;1299;142392;-69
2023/01/22 08:14:17;;;;;;;17.30;9.70;;;;;;;1.30;90.68;100975.51;208358;1278;140608;-68
2023/01/22 08:19:19;;;;;;;23.30;11.50;;;;;;;1.33;90.53;100980.17;208765;1299;140141;-68
2023/01/22 08:24:22;;;;;;;20.90;11.60;;;;;;;1.32;90.86;100984.63;207959;1299;139588;-68
2023/01/22 08:29:24;;;;;;;19.00;10.50;;;;;;;1.32;90.42;100986.67;208463;1292;140661;-69
2023/01/22 08:36:12;;;;;;;19.20;12.40;;;;;;;1.42;90.42;100992.84;208764;1331;683413;-67
2023/01/22 08:41:14;;;;;;;18.90;11.20;;;;;;;1.41;90.30;100997.23;205994;1312;138931;-68
2023/01/22 08:46:16;;;;;;;24.80;13.20;;;;;;;1.46;90.17;101003.64;205857;1310;265599;-70
2023/01/22 08:51:21;;;;;;;43.10;16.60;;;;;;;1.49;90.36;101013.14;205868;1308;138701;-69
2023/01/22 08:56:25;;;;;;;27.30;15.20;;;;;;;1.54;90.29;101021.98;206147;1315;140740;-69
2023/01/22 09:01:27;;;;;;;28.40;15.00;;;;;;;1.57;90.19;101026.23;205575;1308;141912;-68
2023/01/22 09:06:30;;;;;;;35.10;16.20;;;;;;;1.56;90.52;101026.61;205112;1307;139078;-69
2023/01/22 09:11:34;;;;;;;23.40;14.30;;;;;;;1.63;90.09;101031.41;206362;1299;138918;-67
2023/01/22 09:16:38;;;;;;;21.60;12.80;;;;;;;1.71;90.32;101036.48;209400;1299;140014;-67
2023/01/22 09:21:42;;;;;;;23.50;13.20;;;;;;;1.74;90.28;101040.73;208779;1296;139308;-68
2023/01/22 09:26:47;;;;;;;25.50;13.20;;;;;;;1.78;90.29;101046.98;209502;1286;139887;-68
2023/01/22 09:31:51;;;;;;;24.50;13.00;;;;;;;1.83;89.98;101051.27;209603;1294;140327;-68
2023/01/22 09:36:55;;;;;;;28.90;15.00;;;;;;;1.86;90.19;101051.52;209399;1286;150026;-67
2023/01/22 09:42:03;;;;;;;27.80;13.90;;;;;;;1.91;89.88;101056.23;208075;1295;139361;-69
2023/01/22 09:47:24;;;;;;;27.00;15.20;;;;;;;1.96;90.15;101061.94;207562;1289;139340;-70
2023/01/22 09:52:35;;;;;;;29.10;15.10;;;;;;;1.94;89.73;101059.10;207327;1291;139291;-70
2023/01/22 09:57:52;;;;;;;24.60;12.50;;;;;;;1.88;89.41;101051.79;207969;1296;139102;-67
2023/01/22 10:03:11;;;;;;;29.50;14.70;;;;;;;1.86;89.66;101056.75;208511;1296;139638;-67
2023/01/22 10:08:43;;;;;;;28.70;15.70;;;;;;;1.88;90.07;101051.79;209034;1296;139647;-67
2023/01/22 10:13:50;;;;;;;32.90;15.90;;;;;;;1.90;89.87;101057.78;208415;1294;139470;-67
2023/01/22 10:19:03;;;;;;;35.00;16.40;;;;;;;1.91;89.50;101047.65;207566;1290;141488;-67
2023/01/22 10:24:11;;;;;;;30.10;15.20;;;;;;;1.89;89.50;101045.20;207578;1295;141423;-68
2023/01/22 10:29:28;;;;;;;25.70;13.00;;;;;;;1.85;89.70;101044.09;208305;1295;138823;-67
2023/01/22 10:34:34;;;;;;;27.70;12.20;;;;;;;1.85;89.81;101046.55;207981;1295;208484;-66
2023/01/22 10:39:39;;;;;;;25.70;13.90;;;;;;;1.84;89.64;101050.10;207939;1288;139408;-65
2023/01/22 10:44:44;;;;;;;25.70;11.40;;;;;;;1.82;89.65;101045.22;208386;1299;141930;-66
2023/01/22 10:50:00;;;;;;;22.80;12.80;;;;;;;1.84;89.33;101038.91;208239;1294;139625;-64
2023/01/22 10:55:28;;;;;;;27.70;16.20;;;;;;;1.83;89.38;101038.45;208919;1296;141205;-65
2023/01/22 11:00:35;;;;;;;21.00;11.70;;;;;;;1.88;89.39;101035.40;208769;1288;139471;-66
2023/01/22 11:06:28;;;;;;;19.50;12.40;;;;;;;1.90;89.26;101034.98;209142;1302;140287;-65
2023/01/22 11:11:46;;;;;;;30.40;17.70;;;;;;;1.91;89.08;101034.55;209916;1286;224980;-65
2023/01/22 11:16:52;;;;;;;28.10;15.80;;;;;;;1.89;89.12;101035.04;209909;1296;140893;-66
2023/01/22 11:21:57;;;;;;;24.70;12.10;;;;;;;1.93;89.01;101029.92;209456;1298;140998;-67
2023/01/22 11:27:28;;;;;;;23.80;11.20;;;;;;;2.00;89.27;101025.23;209574;1295;141727;-66
2023/01/22 11:33:00;;;;;;;27.80;16.00;;;;;;;2.02;89.22;101019.91;209363;1299;141442;-67
2023/01/22 11:38:28;;;;;;;28.40;16.40;;;;;;;2.08;89.06;101018.36;207944;1302;140343;-66
2023/01/22 11:43:32;;;;;;;26.30;14.20;;;;;;;2.03;89.21;101023.17;208748;1294;139611;-65
2023/01/22 11:48:48;;;;;;;31.80;14.70;;;;;;;2.04;89.19;101018.25;208816;1291;142811;-67
2023/01/22 11:54:10;;;;;;;29.60;15.50;;;;;;;2.02;88.92;101017.11;208916;1296;140255;-63
2023/01/22 11:59:48;;;;;;;24.10;12.80;;;;;;;2.00;89.11;101020.15;207249;1296;138950;-62
2023/01/22 12:05:13;;;;;;;25.60;13.70;;;;;;;2.00;89.18;101025.02;207678;1298;140665;-64
2023/01/22 12:10:45;;;;;;;38.70;20.40;;;;;;;1.96;89.24;101037.58;207051;1298;139443;-64
2023/01/22 12:16:10;;;;;;;34.50;19.10;;;;;;;1.93;89.55;101040.17;207086;1291;139368;-65
2023/01/22 12:21:21;;;;;;;34.60;18.70;;;;;;;1.95;89.44;101041.55;207326;1295;139229;-62
2023/01/22 12:26:45;;;;;;;38.80;19.00;;;;;;;1.91;89.25;101048.73;207197;1289;139627;-64
2023/01/22 12:31:59;;;;;;;38.10;16.80;;;;;;;1.83;89.25;101046.94;208343;1279;141176;-65
2023/01/22 12:37:04;;;;;;;36.80;18.00;;;;;;;1.82;89.43;101049.63;208624;1289;140119;-62
2023/01/22 12:42:50;;;;;;;36.20;19.00;;;;;;;1.78;89.19;101054.44;208358;1299;224024;-63
2023/01/22 12:48:10;;;;;;;34.30;18.50;;;;;;;1.73;89.16;101050.85;207555;1296;246292;-64
2023/01/22 12:53:22;;;;;;;32.90;16.80;;;;;;;1.71;89.49;101056.84;208593;1296;139776;-63
2023/01/22 12:58:29;;;;;;;40.40;19.30;;;;;;;1.67;89.39;101058.04;209543;1300;140032;-62
2023/01/22 13:03:32;;;;;;;41.60;19.60;;;;;;;1.64;89.46;101065.13;210080;1302;139608;-61
2023/01/22 13:08:39;;;;;;;33.50;17.70;;;;;;;1.66;89.23;101068.44;210073;1299;142092;-61
2023/01/22 13:13:43;;;;;;;39.40;16.80;;;;;;;1.65;89.34;101071.16;210030;1303;139701;-68
2023/01/22 13:18:53;;;;;;;36.90;17.00;;;;;;;1.62;88.86;101076.54;209984;1299;139219;-69
2023/01/22 13:24:18;;;;;;;41.30;20.90;;;;;;;1.58;89.32;101076.60;208861;1295;140409;-71
2023/01/22 13:29:27;;;;;;;31.50;15.80;;;;;;;1.53;89.07;101072.64;208317;1291;139429;-69
2023/01/22 13:34:31;;;;;;;28.70;16.50;;;;;;;1.48;88.99;101069.99;207058;1281;140647;-67
2023/01/22 13:39:34;;;;;;;30.30;17.00;;;;;;;1.41;89.20;101072.96;208037;1280;140114;-64
2023/01/22 13:44:40;;;;;;;43.20;18.10;;;;;;;1.35;89.60;101075.73;208236;1287;140799;-65
2023/01/22 13:49:43;;;;;;;31.50;20.70;;;;;;;1.34;89.29;101086.20;208622;1296;139778;-63
2023/01/22 13:55:10;;;;;;;41.10;20.50;;;;;;;1.32;89.82;101083.02;207742;1289;140552;-65
2023/01/22 14:00:28;;;;;;;38.20;18.60;;;;;;;1.31;89.83;101090.65;207082;1290;139796;-65
2023/01/22 14:05:34;;;;;;;30.70;17.20;;;;;;;1.29;89.71;101095.02;207874;1295;140175;-65
2023/01/22 14:10:40;;;;;;;34.00;17.40;;;;;;;1.26;89.73;101095.36;207657;1290;139758;-66
2023/01/22 14:15:58;;;;;;;38.50;20.50;;;;;;;1.24;89.69;101099.55;207672;1292;140071;-65
2023/01/22 14:21:02;;;;;;;30.10;16.80;;;;;;;1.24;90.10;101105.01;207625;1290;140057;-68
2023/01/22 14:26:07;;;;;;;36.20;17.30;;;;;;;1.20;89.99;101112.76;208272;1296;138957;-64
2023/01/22 14:31:10;;;;;;;35.40;18.10;;;;;;;1.20;89.88;101115.33;208667;1289;139948;-61
2023/01/22 14:36:13;;;;;;;28.90;17.10;;;;;;;1.21;89.84;101118.19;208496;1290;140213;-62
2023/01/22 14:41:16;;;;;;;33.50;17.60;;;;;;;1.18;89.40;101116.79;208803;1295;139672;-61
2023/01/22 14:46:18;;;;;;;38.70;18.40;;;;;;;1.18;89.56;101126.94;208938;1296;139784;-69
2023/01/22 14:51:22;;;;;;;36.10;18.00;;;;;;;1.18;89.62;101133.05;209116;1282;140366;-64
2023/01/22 14:56:26;;;;;;;29.90;15.30;;;;;;;1.16;89.77;101133.93;209556;1289;140179;-62
2023/01/22 15:01:29;;;;;;;32.40;15.00;;;;;;;1.12;89.50;101124.02;209910;1297;140329;-65
2023/01/22 15:06:31;;;;;;;37.60;20.30;;;;;;;1.13;89.99;101143.47;209964;1291;140119;-67
2023/01/22 15:11:34;;;;;;;39.00;19.60;;;;;;;1.17;90.05;101162.02;209775;1295;139664;-65
2023/01/22 15:16:37;;;;;;;29.30;15.30;;;;;;;1.18;89.60;101157.19;208508;1291;139929;-69
2023/01/22 15:21:40;;;;;;;38.40;19.00;;;;;;;1.17;89.68;101167.43;208276;1298;141706;-69
2023/01/22 15:26:43;;;;;;;24.60;16.10;;;;;;;1.17;89.78;101173.74;206985;1290;140646;-69
2023/01/22 15:31:47;;;;;;;29.80;15.50;;;;;;;1.12;89.66;101174.73;207145;1289;141094;-66
2023/01/22 15:36:50;;;;;;;33.30;15.80;;;;;;;1.07;89.70;101181.89;208054;1289;142203;-66
2023/01/22 15:41:52;;;;;;;40.60;20.90;;;;;;;1.03;89.83;101187.80;209275;1289;140536;-66
2023/01/22 15:46:59;;;;;;;28.90;15.60;;;;;;;0.97;90.00;101189.01;209262;1297;140318;-67
2023/01/22 15:52:03;;;;;;;37.20;18.20;;;;;;;0.96;89.62;101193.45;207273;1290;140553;-65
2023/01/22 15:57:07;;;;;;;37.10;21.50;;;;;;;0.94;90.22;101195.26;207995;1287;140258;-65
2023/01/22 16:02:09;;;;;;;34.20;17.60;;;;;;;0.93;89.92;101198.28;207325;1295;140432;-65
2023/01/22 16:07:13;;;;;;;36.50;19.90;;;;;;;0.93;89.73;101201.27;207301;1295;141460;-66
2023/01/22 16:12:17;;;;;;;38.00;16.50;;;;;;;0.90;90.11;101209.66;208333;1297;143340;-64
2023/01/22 16:17:24;;;;;;;37.10;16.30;;;;;;;0.85;89.81;101218.27;208616;1290;140993;-64
2023/01/22 16:22:26;;;;;;;37.70;18.00;;;;;;;0.83;90.06;101219.35;207774;1289;140141;-63
2023/01/22 16:27:29;;;;;;;36.60;19.00;;;;;;;0.80;90.19;101217.52;208504;1289;140369;-69
2023/01/22 16:32:33;;;;;;;33.90;17.90;;;;;;;0.78;90.05;101219.62;207721;1299;140729;-65
2023/01/22 16:37:38;;;;;;;40.40;21.40;;;;;;;0.78;90.33;101222.77;207583;1297;139862;-65
2023/01/22 16:42:57;;;;;;;32.80;16.80;;;;;;;0.76;90.10;101222.11;209958;1295;139825;-66
2023/01/22 16:48:00;;;;;;;43.50;19.80;;;;;;;0.76;90.39;101225.77;208132;1286;139842;-64
2023/01/22 16:53:04;;;;;;;35.20;20.90;;;;;;;0.78;90.07;101229.92;207146;1283;141369;-72
2023/01/22 16:58:06;;;;;;;36.60;18.60;;;;;;;0.80;90.42;101236.25;209941;1300;139231;-64
2023/01/22 17:03:09;;;;;;;37.40;17.60;;;;;;;0.81;90.27;101239.70;209964;1299;139568;-67
2023/01/22 17:08:12;;;;;;;40.50;19.60;;;;;;;0.85;90.11;101239.33;208750;1283;140802;-69
2023/01/22 17:13:17;;;;;;;43.40;19.20;;;;;;;0.85;90.20;101236.52;209621;1298;149603;-65
2023/01/22 17:18:20;;;;;;;32.60;17.70;;;;;;;0.88;90.07;101239.70;207910;1289;142138;-63
2023/01/22 17:23:23;;;;;;;35.90;17.30;;;;;;;0.89;90.15;101249.08;208530;1290;140572;-72
2023/01/22 17:28:25;;;;;;;39.40;16.80;;;;;;;0.88;90.21;101256.66;207699;1296;140231;-69
2023/01/22 17:33:29;;;;;;;33.70;17.40;;;;;;;0.89;89.96;101263.06;207177;1289;142583;-68
2023/01/22 17:38:34;;;;;;;32.60;16.00;;;;;;;0.87;90.26;101271.15;208385;1289;244498;-69
2023/01/22 17:43:42;;;;;;;36.30;18.50;;;;;;;0.88;90.11;101277.84;208036;1297;140425;-64
2023/01/22 17:48:48;;;;;;;33.30;18.30;;;;;;;0.88;90.26;101276.45;206926;1282;141632;-68
2023/01/22 17:53:53;;;;;;;31.40;17.40;;;;;;;0.84;89.93;101274.56;208747;1289;140737;-66
2023/01/22 17:58:59;;;;;;;31.60;16.90;;;;;;;0.84;89.89;101276.64;207080;1289;140540;-66
2023/01/22 18:04:05;;;;;;;37.70;17.60;;;;;;;0.85;90.29;101279.38;208003;1289;140889;-67
2023/01/22 18:09:10;;;;;;;25.10;14.30;;;;;;;0.84;90.12;101279.31;207994;1289;141594;-67
2023/01/22 18:14:20;;;;;;;33.20;17.20;;;;;;;0.83;90.19;101283.95;207409;1295;141174;-66
2023/01/22 18:19:24;;;;;;;39.00;18.00;;;;;;;0.79;90.08;101284.27;207065;1283;142621;-66
2023/01/22 18:24:30;;;;;;;34.30;16.20;;;;;;;0.77;90.03;101291.11;208538;1302;141658;-63
2023/01/22 18:29:35;;;;;;;41.00;19.30;;;;;;;0.80;89.95;101295.77;208448;1287;139896;-65
2023/01/22 18:34:40;;;;;;;45.20;24.40;;;;;;;0.79;89.77;101304.60;208642;1296;140887;-65
2023/01/22 18:39:43;;;;;;;37.20;18.30;;;;;;;0.80;90.48;101309.06;208622;1293;140051;-66
2023/01/22 18:44:46;;;;;;;39.80;19.00;;;;;;;0.82;90.01;101312.05;208344;1296;145689;-67
2023/01/22 18:49:49;;;;;;;36.50;19.50;;;;;;;0.80;90.33;101317.85;208214;1298;140440;-62
2023/01/22 18:54:52;;;;;;;34.40;17.10;;;;;;;0.80;90.24;101323.59;210160;1300;141950;-65
2023/01/22 18:59:55;;;;;;;39.80;18.60;;;;;;;0.81;90.00;101330.34;209729;1299;140824;-65
2023/01/22 19:04:59;;;;;;;37.60;18.70;;;;;;;0.80;90.10;101336.66;209905;1299;140504;-66
2023/01/22 19:10:06;;;;;;;34.80;17.00;;;;;;;0.81;90.28;101340.64;208231;1299;141193;-65
2023/01/22 19:15:14;;;;;;;39.20;21.00;;;;;;;0.80;90.21;101335.69;209680;1299;140807;-64
2023/01/22 19:20:18;;;;;;;27.20;15.30;;;;;;;0.77;90.02;101331.88;207531;1290;139751;-65
2023/01/22 19:25:21;;;;;;;29.20;17.20;;;;;;;0.75;90.04;101335.73;207636;1297;140576;-67
2023/01/22 19:30:25;;;;;;;34.20;16.40;;;;;;;0.75;89.88;101341.89;207418;1294;140222;-68
2023/01/22 19:35:28;;;;;;;41.20;20.90;;;;;;;0.77;90.12;101352.17;208162;1296;140225;-69
2023/01/22 19:40:31;;;;;;;35.50;16.80;;;;;;;0.76;90.25;101355.45;207190;1291;139560;-69
2023/01/22 19:45:35;;;;;;;30.90;14.70;;;;;;;0.76;90.23;101359.05;207097;1290;139771;-67
2023/01/22 19:50:38;;;;;;;31.90;17.60;;;;;;;0.78;89.89;101362.46;208120;1298;139889;-68
2023/01/22 19:55:43;;;;;;;31.60;15.90;;;;;;;0.76;90.06;101362.59;207011;1303;139900;-67
2023/01/22 20:00:48;;;;;;;36.00;17.00;;;;;;;0.72;89.93;101362.09;209343;1298;139446;-69
2023/01/22 20:05:55;;;;;;;33.90;17.20;;;;;;;0.72;90.06;101361.38;207580;1290;140836;-69
2023/01/22 20:10:59;;;;;;;33.30;17.70;;;;;;;0.75;90.25;101360.45;207056;1298;139397;-67
2023/01/22 20:16:05;;;;;;;34.30;16.40;;;;;;;0.74;90.19;101360.30;207078;1291;141802;-67
2023/01/22 20:21:13;;;;;;;38.10;16.70;;;;;;;0.71;89.94;101361.27;208675;1290;246018;-68
2023/01/22 20:26:18;;;;;;;31.00;16.60;;;;;;;0.72;89.86;101367.02;207231;1297;141987;-66
2023/01/22 20:31:23;;;;;;;28.80;16.10;;;;;;;0.69;90.07;101368.80;207273;1297;140573;-66
2023/01/22 20:36:28;;;;;;;34.90;18.20;;;;;;;0.66;90.18;101377.39;208364;1297;139464;-66
2023/01/22 20:41:33;;;;;;;34.00;17.80;;;;;;;0.69;90.33;101380.83;208862;1293;140290;-64
2023/01/22 20:46:39;;;;;;;37.50;16.00;;;;;;;0.73;90.19;101391.20;209547;1290;320299;-67
2023/01/22 20:51:43;;;;;;;26.30;15.60;;;;;;;0.78;90.24;101402.33;209775;1297;141244;-71
2023/01/22 20:56:49;;;;;;;29.40;17.70;;;;;;;0.80;90.06;101403.89;209689;1290;140099;-69
2023/01/22 21:01:53;;;;;;;26.70;15.10;;;;;;;0.79;89.65;101395.73;208365;1291;140387;-69
2023/01/22 21:06:57;;;;;;;33.90;17.20;;;;;;;0.78;89.96;101396.67;207253;1297;145310;-65
2023/01/22 21:12:00;;;;;;;36.50;18.00;;;;;;;0.75;89.61;101396.95;208801;1297;141349;-73
2023/01/22 21:17:04;;;;;;;41.30;22.50;;;;;;;0.75;89.93;101402.95;208007;1290;139524;-67
2023/01/22 21:22:09;;;;;;;36.40;18.50;;;;;;;0.74;90.08;101402.83;208303;1273;139709;-61
2023/01/22 21:27:12;;;;;;;31.50;18.10;;;;;;;0.73;90.19;101404.67;207857;1291;140385;-61
2023/01/22 21:32:14;;;;;;;36.80;19.50;;;;;;;0.75;90.55;101407.45;208624;1289;141143;-64
2023/01/22 21:37:17;;;;;;;36.50;17.50;;;;;;;0.73;90.05;101410.95;208372;1288;140142;-63
2023/01/22 21:47:42;;;;;;;35.30;16.60;;;;;;;0.71;90.17;101408.67;207402;1288;140066;-66
2023/01/22 21:52:45;;;;;;;31.20;17.40;;;;;;;0.64;90.07;101413.60;207471;1279;141833;-64
2023/01/22 21:57:50;;;;;;;38.50;17.60;;;;;;;0.61;90.04;101418.16;208574;1292;140006;-67
2023/01/22 22:02:54;;;;;;;38.20;16.20;;;;;;;0.62;90.08;101421.29;207290;1300;140129;-62
2023/01/22 22:07:58;;;;;;;34.00;17.60;;;;;;;0.66;90.51;101429.25;207569;1288;140184;-63
2023/01/22 22:13:01;;;;;;;33.60;20.00;;;;;;;0.64;90.86;101432.52;207943;1297;139956;-64
2023/01/22 22:18:03;;;;;;;27.60;17.20;;;;;;;0.67;90.27;101442.40;207378;1291;140828;-63
2023/01/22 22:23:05;;;;;;;38.10;20.00;;;;;;;0.70;90.37;101446.07;208572;1291;139456;-63
2023/01/22 22:28:08;;;;;;;38.90;19.50;;;;;;;0.66;90.24;101446.31;208603;1290;140635;-63
2023/01/22 22:33:10;;;;;;;40.80;19.90;;;;;;;0.65;90.35;101452.73;207409;1290;139849;-66
2023/01/22 22:38:13;;;;;;;36.30;17.40;;;;;;;0.70;90.50;101457.59;207451;1290;140911;-65
2023/01/22 22:43:15;;;;;;;37.40;20.00;;;;;;;0.71;90.59;101468.54;209003;1289;140874;-63
2023/01/22 22:48:18;;;;;;;35.80;17.50;;;;;;;0.69;90.97;101470.92;209614;1284;139571;-62
2023/01/22 22:53:21;;;;;;;45.50;21.80;;;;;;;0.69;90.21;101468.36;209869;1289;140972;-62
2023/01/22 22:58:24;;;;;;;37.80;18.80;;;;;;;0.70;90.29;101455.88;210106;1297;141392;-65
2023/01/22 23:03:26;;;;;;;36.70;17.60;;;;;;;0.70;90.29;101458.30;209103;1297;140467;-64
2023/01/22 23:08:28;;;;;;;44.30;20.30;;;;;;;0.70;90.37;101466.48;209966;1297;140924;-64
2023/01/22 23:13:32;;;;;;;33.00;16.10;;;;;;;0.70;90.71;101465.63;208801;1297;140198;-68